Time;durP1;ratioP1;P1;durP2;ratioP2;P2;SDS_P1;SDS_P2;PMS_P1;PMS_P2;Temp;Humidity;BMP_temperature;BMP_pressure;BME280_temperature;BME280_humidity;BME280_pressure;Samples;Min_cycle;Max_cycle;Signal;HPM_P1;HPM_P2
2022/05/15 00:02:11;;;;;;;5.57;2.90;;;;;;;13.43;68.25;100938.47;4989946;28;20517;-76
2022/05/15 00:04:37;;;;;;;5.00;2.77;;;;;;;13.49;67.77;100947.03;5033974;28;20279;-76
2022/05/15 00:07:04;;;;;;;8.43;2.57;;;;;;;13.44;67.49;100958.56;5033924;28;20253;-76
2022/05/15 00:09:31;;;;;;;4.37;3.10;;;;;;;13.49;67.41;100969.78;5033442;28;20679;-76
2022/05/15 00:11:57;;;;;;;6.50;3.07;;;;;;;13.44;67.08;100975.16;5033878;28;20226;-75
2022/05/15 00:14:25;;;;;;;5.83;3.03;;;;;;;13.44;67.48;100975.16;5033784;28;20265;-76
2022/05/15 00:16:51;;;;;;;6.90;2.83;;;;;;;13.38;67.39;100956.94;5033344;28;20675;-76
2022/05/15 00:19:18;;;;;;;5.20;2.23;;;;;;;13.40;67.59;100956.88;5033291;28;20628;-76
2022/05/15 00:21:44;;;;;;;8.17;3.03;;;;;;;13.39;66.83;100974.38;5033586;28;20350;-76
2022/05/15 00:24:11;;;;;;;5.80;2.80;;;;;;;13.38;67.28;100975.28;5033513;28;20675;-75
2022/05/15 00:26:38;;;;;;;5.60;3.10;;;;;;;13.29;67.29;100971.09;5033303;28;20690;-75
2022/05/15 00:29:04;;;;;;;7.13;2.87;;;;;;;13.25;67.30;100964.16;5033591;28;20214;-75
2022/05/15 00:31:32;;;;;;;8.20;3.03;;;;;;;13.22;67.21;100973.84;5033057;28;20298;-75
2022/05/15 00:33:59;;;;;;;8.93;3.10;;;;;;;13.25;66.97;100979.88;5033548;28;20603;-76
2022/05/15 00:36:26;;;;;;;7.67;2.60;;;;;;;13.21;67.53;100969.50;5033095;28;20723;-75
2022/05/15 00:38:52;;;;;;;6.23;2.57;;;;;;;13.19;67.56;100969.53;5032860;28;20198;-77
2022/05/15 00:41:19;;;;;;;7.27;2.77;;;;;;;13.19;67.46;100966.06;5032972;28;20206;-76
2022/05/15 00:43:48;;;;;;;6.87;3.00;;;;;;;13.11;67.62;100953.09;5032630;28;20597;-76
2022/05/15 00:46:18;;;;;;;7.37;2.97;;;;;;;13.13;67.78;100947.84;5033241;28;20248;-76
2022/05/15 00:48:47;;;;;;;5.33;2.83;;;;;;;13.00;68.21;100937.63;5033084;28;20194;-76
2022/05/15 00:51:19;;;;;;;5.30;2.77;;;;;;;13.00;67.94;100936.72;5033142;28;20206;-76
2022/05/15 00:53:48;;;;;;;6.23;3.37;;;;;;;13.00;68.14;100940.25;5032223;28;20222;-76
2022/05/15 00:56:16;;;;;;;7.90;3.20;;;;;;;12.98;68.28;100928.03;5032328;28;20206;-76
2022/05/15 00:58:48;;;;;;;5.40;3.17;;;;;;;12.93;68.39;100933.38;5032853;28;20296;-76
2022/05/15 01:01:16;;;;;;;10.53;3.27;;;;;;;12.88;68.46;100932.59;5032932;28;20225;-76
2022/05/15 01:03:45;;;;;;;10.13;3.47;;;;;;;12.85;68.21;100933.53;5032849;28;20230;-76
2022/05/15 01:06:12;;;;;;;4.67;2.70;;;;;;;12.83;68.66;100934.47;5033026;28;20285;-76
2022/05/15 01:08:38;;;;;;;5.70;2.87;;;;;;;12.83;68.35;100929.25;5031661;28;20205;-76
2022/05/15 01:11:10;;;;;;;8.57;3.07;;;;;;;12.74;68.39;100932.88;5032520;28;20788;-76
2022/05/15 01:13:39;;;;;;;6.23;2.93;;;;;;;12.71;68.88;100928.59;5033081;28;20236;-75
2022/05/15 01:16:07;;;;;;;5.40;2.70;;;;;;;12.67;69.21;100928.69;5032658;28;20209;-75
2022/05/15 01:18:36;;;;;;;5.13;3.60;;;;;;;12.68;69.17;100917.28;5033136;28;20210;-75
2022/05/15 01:21:19;;;;;;;7.30;3.43;;;;;;;12.67;68.97;100919.06;5032625;28;20223;-76
2022/05/15 01:23:46;;;;;;;4.30;2.70;;;;;;;12.63;69.09;100917.41;5032060;28;20780;-75
2022/05/15 01:26:13;;;;;;;6.33;3.03;;;;;;;12.49;69.54;100916.81;5032844;28;20293;-76
2022/05/15 01:28:39;;;;;;;7.40;2.70;;;;;;;12.42;69.46;100917.81;5032241;28;20202;-76
2022/05/15 01:31:05;;;;;;;5.37;3.10;;;;;;;12.33;70.27;100887.44;5032638;28;20267;-76
2022/05/15 01:33:32;;;;;;;5.17;3.50;;;;;;;12.38;70.52;100877.72;5032268;28;20225;-76
2022/05/15 01:35:58;;;;;;;9.17;3.20;;;;;;;12.42;70.43;100876.78;5032297;28;20210;-76
2022/05/15 01:38:26;;;;;;;6.00;2.90;;;;;;;12.46;70.38;100880.19;5032370;28;20249;-76
2022/05/15 01:40:53;;;;;;;9.80;3.43;;;;;;;12.45;70.29;100871.50;5032171;28;20204;-76
2022/05/15 01:43:19;;;;;;;7.40;3.40;;;;;;;12.43;70.44;100881.13;5032052;28;20233;-76
2022/05/15 01:45:46;;;;;;;8.73;3.70;;;;;;;12.41;70.79;100868.97;5032176;28;20578;-76
2022/05/15 01:48:12;;;;;;;6.17;3.40;;;;;;;12.39;70.68;100869.00;5032372;28;20217;-75
2022/05/15 01:50:39;;;;;;;6.37;3.23;;;;;;;12.29;71.26;100852.59;5032241;28;20263;-76
2022/05/15 01:53:05;;;;;;;6.53;2.93;;;;;;;12.33;71.30;100842.94;5032002;28;20229;-76
2022/05/15 01:55:33;;;;;;;6.53;3.37;;;;;;;12.37;71.17;100846.34;5031387;28;20209;-76
2022/05/15 01:58:00;;;;;;;6.20;3.73;;;;;;;12.36;71.01;100861.19;5032131;28;20283;-76
2022/05/15 02:00:27;;;;;;;8.13;3.90;;;;;;;12.33;70.73;100866.50;5059992;22;20251;-80
2022/05/15 02:02:54;;;;;;;9.47;4.40;;;;;;;12.23;70.91;100873.66;5042964;28;20237;-80
2022/05/15 02:05:21;;;;;;;5.80;3.47;;;;;;;12.24;70.86;100869.28;5034251;28;20262;-80
2022/05/15 02:07:48;;;;;;;7.57;3.93;;;;;;;12.14;70.98;100868.59;5033575;28;20228;-80
2022/05/15 02:10:15;;;;;;;4.90;3.50;;;;;;;12.07;71.24;100856.50;5051438;28;20741;-80
2022/05/15 02:12:43;;;;;;;7.03;3.80;;;;;;;12.01;71.97;100839.19;5036914;28;20611;-79
2022/05/15 02:15:10;;;;;;;5.63;3.50;;;;;;;12.02;72.04;100832.19;5035701;28;20213;-79
2022/05/15 02:17:37;;;;;;;6.00;3.40;;;;;;;12.00;71.96;100820.88;5036067;28;20265;-80
2022/05/15 02:20:05;;;;;;;7.80;3.87;;;;;;;12.00;71.58;100836.59;5034898;28;20226;-80
2022/05/15 02:22:32;;;;;;;6.23;3.73;;;;;;;11.90;71.69;100835.88;5035034;28;20230;-78
2022/05/15 02:24:58;;;;;;;6.43;4.07;;;;;;;11.90;71.98;100834.13;5031140;28;20258;-78
2022/05/15 02:27:24;;;;;;;7.40;3.87;;;;;;;11.83;72.58;100818.53;5031976;28;20202;-79
2022/05/15 02:29:52;;;;;;;8.57;4.70;;;;;;;11.85;72.84;100809.78;5030996;28;20205;-79
2022/05/15 02:32:18;;;;;;;10.63;3.90;;;;;;;11.84;72.60;100807.19;5031650;28;20225;-78
2022/05/15 02:34:45;;;;;;;6.70;4.00;;;;;;;11.77;73.10;100803.81;5031616;28;20235;-79
2022/05/15 02:37:11;;;;;;;8.93;4.40;;;;;;;11.74;73.43;100790.81;5031343;28;20626;-79
2022/05/15 02:39:38;;;;;;;8.63;4.87;;;;;;;11.75;73.15;100807.34;5038505;28;20208;-78
2022/05/15 02:42:05;;;;;;;9.33;4.00;;;;;;;11.75;73.35;100802.97;5045912;28;20373;-79
2022/05/15 02:44:31;;;;;;;11.57;5.00;;;;;;;11.73;73.64;100789.06;5052075;28;20213;-79
2022/05/15 02:46:59;;;;;;;7.50;3.73;;;;;;;11.76;73.70;100796.88;5051836;28;20205;-79
2022/05/15 02:52:09;;;;;;;13.47;4.30;;;;;;;11.62;74.17;100777.97;5053867;28;20275;-80
2022/05/15 02:54:36;;;;;;;10.43;4.23;;;;;;;11.61;74.07;100773.59;5053215;28;20205;-80
2022/05/15 02:57:04;;;;;;;9.57;5.23;;;;;;;11.61;74.10;100774.47;5054254;28;20211;-80
2022/05/15 02:59:31;;;;;;;11.20;4.53;;;;;;;11.55;74.25;100779.81;5053152;28;20208;-80
2022/05/15 03:01:59;;;;;;;9.60;4.60;;;;;;;11.46;74.05;100769.53;5053405;28;20248;-80
2022/05/15 03:04:25;;;;;;;5.97;4.10;;;;;;;11.43;74.80;100766.94;5054136;28;20240;-80
2022/05/15 03:06:55;;;;;;;6.53;4.03;;;;;;;11.47;74.97;100758.16;5054780;28;20213;-80
2022/05/15 03:09:21;;;;;;;8.53;4.17;;;;;;;11.42;74.92;100758.25;5054300;28;20744;-79
2022/05/15 03:11:48;;;;;;;8.23;4.57;;;;;;;11.41;74.79;100758.28;5049608;28;20281;-80
2022/05/15 03:14:14;;;;;;;8.93;4.97;;;;;;;11.42;74.86;100750.41;5057058;28;20581;-80
2022/05/15 03:16:41;;;;;;;8.23;4.50;;;;;;;11.35;75.04;100750.53;5057285;28;20209;-80
2022/05/15 03:19:09;;;;;;;7.97;4.93;;;;;;;11.35;74.91;100758.38;5056349;28;20212;-80
2022/05/15 03:21:35;;;;;;;5.57;4.20;;;;;;;11.30;75.35;100742.78;5056921;28;20225;-79
2022/05/15 03:24:04;;;;;;;6.97;4.30;;;;;;;11.31;75.62;100739.25;5057029;28;20245;-80
2022/05/15 03:26:32;;;;;;;12.67;3.87;;;;;;;11.28;75.48;100742.81;5057474;28;20260;-80
2022/05/15 03:28:59;;;;;;;9.53;4.37;;;;;;;11.20;76.09;100726.41;5056268;28;20212;-80
2022/05/15 03:31:25;;;;;;;8.10;4.73;;;;;;;11.27;76.05;100722.78;5057077;28;20771;-79
2022/05/15 03:33:52;;;;;;;8.90;5.27;;;;;;;11.29;76.15;100731.44;5056800;28;20204;-80
2022/05/15 03:36:20;;;;;;;5.40;4.63;;;;;;;11.25;76.09;100721.94;5056686;28;20261;-80
2022/05/15 03:38:47;;;;;;;7.43;4.57;;;;;;;11.30;75.86;100735.81;5054694;28;20247;-80
2022/05/15 03:41:15;;;;;;;7.77;4.90;;;;;;;11.33;75.37;100753.16;5049180;28;20278;-80
2022/05/15 03:43:41;;;;;;;7.53;4.70;;;;;;;11.18;75.99;100748.19;5057694;28;20229;-79
2022/05/15 03:46:08;;;;;;;9.67;4.80;;;;;;;11.18;75.68;100750.81;5050361;28;20267;-80
2022/05/15 03:48:36;;;;;;;7.00;4.10;;;;;;;11.19;76.24;100736.88;5045881;28;20358;-80
2022/05/15 03:51:03;;;;;;;9.47;4.43;;;;;;;11.09;76.13;100741.38;5050376;28;20221;-80
2022/05/15 03:53:32;;;;;;;6.33;4.47;;;;;;;11.06;76.56;100725.75;5057169;28;20206;-79
2022/05/15 03:55:59;;;;;;;9.10;4.60;;;;;;;11.10;76.32;100736.13;5053852;28;20624;-78
2022/05/15 03:58:27;;;;;;;9.97;3.90;;;;;;;11.17;75.79;100751.72;5054109;28;20203;-79
2022/05/15 04:00:54;;;;;;;7.70;4.97;;;;;;;11.15;75.90;100761.31;5053202;28;20243;-79
2022/05/15 04:03:21;;;;;;;9.03;4.67;;;;;;;11.10;76.03;100754.44;5031131;28;20663;-79
2022/05/15 04:05:48;;;;;;;7.97;4.47;;;;;;;11.12;75.82;100762.25;5027198;28;20243;-79
2022/05/15 04:08:15;;;;;;;5.90;4.13;;;;;;;11.11;75.97;100763.13;5023637;28;20672;-79
2022/05/15 04:10:43;;;;;;;6.10;3.60;;;;;;;11.20;75.84;100767.31;5021565;28;20223;-79
2022/05/15 04:13:09;;;;;;;9.33;4.73;;;;;;;11.13;76.47;100758.72;5023897;28;20552;-79
2022/05/15 04:15:36;;;;;;;9.67;4.20;;;;;;;11.24;76.61;100754.19;5023828;28;20229;-79
2022/05/15 04:18:04;;;;;;;10.03;4.70;;;;;;;11.21;77.28;100743.78;5021278;28;20199;-78
2022/05/15 04:20:31;;;;;;;6.03;3.90;;;;;;;11.19;76.97;100744.72;5022716;28;20221;-79
2022/05/15 04:22:57;;;;;;;9.93;5.03;;;;;;;11.19;77.34;100744.72;5023852;28;20225;-79
2022/05/15 04:25:24;;;;;;;8.90;4.67;;;;;;;11.13;77.68;100730.00;5022230;28;20202;-79
2022/05/15 04:27:52;;;;;;;7.33;4.70;;;;;;;11.17;77.82;100730.81;5023418;28;20205;-78
2022/05/15 04:30:21;;;;;;;6.43;4.27;;;;;;;11.20;77.64;100738.56;5023009;28;20717;-79
2022/05/15 04:32:48;;;;;;;7.10;4.73;;;;;;;11.24;77.63;100741.13;5027600;28;20202;-79
2022/05/15 04:35:14;;;;;;;7.67;4.57;;;;;;;11.24;77.88;100729.81;5030640;28;20200;-79
2022/05/15 04:37:41;;;;;;;7.47;4.37;;;;;;;11.31;77.24;100741.88;5023808;28;20271;-79
2022/05/15 04:40:09;;;;;;;7.03;4.70;;;;;;;11.38;77.37;100746.13;5021443;28;20863;-79
2022/05/15 04:42:35;;;;;;;14.87;4.70;;;;;;;11.45;77.24;100747.72;5022520;28;20194;-79
2022/05/15 04:45:03;;;;;;;9.87;5.00;;;;;;;11.54;77.53;100744.09;5023887;28;20197;-79
2022/05/15 04:47:30;;;;;;;9.00;4.23;;;;;;;11.51;77.95;100726.69;5021843;28;20197;-79
2022/05/15 04:49:57;;;;;;;6.27;3.73;;;;;;;11.61;77.49;100732.63;5021505;28;20707;-79
2022/05/15 04:52:24;;;;;;;7.63;4.40;;;;;;;11.67;76.89;100748.22;5032378;28;20209;-79
2022/05/15 04:54:51;;;;;;;6.47;4.33;;;;;;;11.73;77.25;100762.91;5026813;28;20198;-79
2022/05/15 04:57:17;;;;;;;12.47;4.90;;;;;;;11.73;77.35;100760.31;5021906;28;20208;-79
2022/05/15 04:59:44;;;;;;;10.33;5.57;;;;;;;11.66;77.97;100741.25;5022528;28;20605;-79
2022/05/15 05:02:11;;;;;;;5.50;4.20;;;;;;;11.62;78.50;100723.91;5022167;28;20557;-79
2022/05/15 05:04:38;;;;;;;7.73;4.20;;;;;;;11.66;78.67;100722.09;5021259;28;20294;-79
2022/05/15 05:07:04;;;;;;;8.20;4.40;;;;;;;11.70;78.49;100722.00;5020802;28;20206;-80
2022/05/15 05:09:31;;;;;;;8.17;4.70;;;;;;;11.81;77.96;100732.25;5012601;28;20210;-79
2022/05/15 05:11:57;;;;;;;10.10;5.57;;;;;;;11.84;77.02;100762.72;5012851;28;20233;-79
2022/05/15 05:14:24;;;;;;;11.60;5.03;;;;;;;11.90;76.79;100784.44;5012827;28;20256;-79
2022/05/15 05:16:50;;;;;;;8.73;5.07;;;;;;;11.96;76.39;100785.22;5012684;28;20209;-79
2022/05/15 05:19:17;;;;;;;9.90;4.90;;;;;;;11.98;75.95;100801.75;5011958;28;20632;-79
2022/05/15 05:21:44;;;;;;;9.00;4.87;;;;;;;12.02;76.26;100803.41;5034942;28;20708;-79
2022/05/15 05:24:10;;;;;;;9.57;4.67;;;;;;;12.06;75.24;100815.53;5047096;28;20612;-79
2022/05/15 05:26:37;;;;;;;12.17;5.00;;;;;;;12.11;75.07;100816.31;5052352;28;20641;-79
2022/05/15 05:29:03;;;;;;;12.33;5.07;;;;;;;12.18;74.87;100831.00;5051483;28;20281;-79
2022/05/15 05:31:30;;;;;;;8.10;4.90;;;;;;;12.19;75.09;100831.84;5052005;28;20287;-79
2022/05/15 05:33:56;;;;;;;6.03;4.50;;;;;;;12.23;75.23;100826.56;5051367;28;20739;-79
2022/05/15 05:36:24;;;;;;;9.87;6.03;;;;;;;12.26;75.26;100828.22;5052209;28;20567;-79
2022/05/15 05:38:52;;;;;;;7.53;5.00;;;;;;;12.29;75.02;100836.03;5051431;28;20215;-78
2022/05/15 05:41:18;;;;;;;6.97;4.93;;;;;;;12.33;74.82;100829.84;5051760;28;20800;-79
2022/05/15 05:43:44;;;;;;;10.63;6.13;;;;;;;12.38;74.42;100834.97;5051527;28;20710;-79
2022/05/15 05:46:11;;;;;;;7.23;4.97;;;;;;;12.39;74.46;100847.16;5051834;28;20682;-79
2022/05/15 05:48:37;;;;;;;8.43;4.83;;;;;;;12.42;74.26;100841.88;5051316;28;20633;-79
2022/05/15 05:51:04;;;;;;;7.63;4.87;;;;;;;12.45;74.62;100837.44;5048654;28;20295;-79
2022/05/15 05:53:33;;;;;;;12.17;5.23;;;;;;;12.52;74.55;100832.94;5043390;28;20200;-79
2022/05/15 05:56:00;;;;;;;7.43;5.07;;;;;;;12.58;75.16;100831.97;5051741;28;20676;-78
2022/05/15 05:58:26;;;;;;;10.03;5.83;;;;;;;12.64;75.51;100816.09;5051665;28;20209;-79
2022/05/15 06:00:52;;;;;;;6.23;4.77;;;;;;;12.68;75.53;100828.25;5050366;28;20236;-79
2022/05/15 06:06:03;;;;;;;8.20;4.87;;;;;;;12.80;75.44;100812.25;5051924;28;20230;-79
2022/05/15 06:08:30;;;;;;;10.70;5.57;;;;;;;12.84;76.04;100805.19;5051800;28;20264;-79
2022/05/15 06:10:58;;;;;;;8.73;5.67;;;;;;;12.88;76.77;100794.63;5051008;28;20223;-79
2022/05/15 06:13:25;;;;;;;8.37;5.03;;;;;;;12.91;77.36;100767.50;5051283;28;20209;-79
2022/05/15 06:15:52;;;;;;;6.53;5.57;;;;;;;12.95;77.37;100753.41;5051563;28;20209;-79
2022/05/15 06:18:18;;;;;;;9.33;5.87;;;;;;;12.97;77.79;100761.25;5047191;28;20205;-79
2022/05/15 06:20:45;;;;;;;8.47;5.43;;;;;;;13.04;76.97;100768.94;5041249;28;20221;-79
2022/05/15 06:23:11;;;;;;;7.17;4.00;;;;;;;13.14;76.14;100795.78;5043161;28;20270;-79
2022/05/15 06:25:38;;;;;;;8.67;4.40;;;;;;;13.27;75.43;100812.91;5051213;28;20210;-79
2022/05/15 06:28:06;;;;;;;9.17;4.90;;;;;;;13.31;76.75;100787.53;5051507;28;20258;-79
2022/05/15 06:30:32;;;;;;;10.83;4.90;;;;;;;13.28;77.77;100754.34;5050486;28;20225;-79
2022/05/15 06:32:59;;;;;;;6.23;5.07;;;;;;;13.34;77.76;100747.25;5053145;28;20698;-80
2022/05/15 06:35:26;;;;;;;11.37;4.60;;;;;;;13.33;78.15;100735.91;5042585;28;20245;-79
2022/05/15 06:37:52;;;;;;;7.43;4.00;;;;;;;13.40;75.08;100784.69;5044751;28;20247;-79
2022/05/15 06:40:19;;;;;;;7.17;4.30;;;;;;;13.49;74.29;100849.16;5051231;28;20225;-79
2022/05/15 06:42:45;;;;;;;7.97;4.10;;;;;;;13.57;74.20;100849.81;5055112;28;20282;-79
2022/05/15 06:45:14;;;;;;;8.83;4.70;;;;;;;13.72;73.17;100873.97;5055955;28;20238;-79
2022/05/15 06:47:41;;;;;;;7.20;4.37;;;;;;;13.83;71.54;100914.75;5045040;28;20201;-79
2022/05/15 06:50:09;;;;;;;7.90;4.23;;;;;;;13.90;70.74;100947.81;5035047;28;20229;-79
2022/05/15 06:52:37;;;;;;;9.70;4.63;;;;;;;13.99;70.22;100964.25;5036975;28;20203;-79
2022/05/15 06:55:06;;;;;;;13.00;5.00;;;;;;;14.04;69.98;100975.50;5047229;28;20233;-79
2022/05/15 06:57:32;;;;;;;6.27;4.93;;;;;;;14.15;69.99;100964.72;5055540;28;20208;-79
2022/05/15 07:00:00;;;;;;;7.07;4.77;;;;;;;14.22;70.27;100953.19;5054556;28;20328;-79
2022/05/15 07:02:29;;;;;;;9.57;5.20;;;;;;;14.31;70.05;100960.81;5055895;28;20323;-78
2022/05/15 07:04:57;;;;;;;8.67;4.83;;;;;;;14.38;70.18;100958.88;5048475;28;20779;-79
2022/05/15 07:07:23;;;;;;;11.70;5.50;;;;;;;14.47;69.94;100958.66;5038191;28;20208;-79
2022/05/15 07:09:50;;;;;;;9.10;5.40;;;;;;;14.53;70.01;100966.38;5034654;28;20275;-79
2022/05/15 07:12:16;;;;;;;8.50;5.20;;;;;;;14.59;69.49;100989.00;5036002;28;20264;-79
2022/05/15 07:14:43;;;;;;;6.37;5.00;;;;;;;14.66;68.93;100988.78;5036651;28;20206;-79
2022/05/15 07:17:09;;;;;;;12.67;5.53;;;;;;;14.72;68.78;101000.91;5035031;28;20260;-79
2022/05/15 07:19:37;;;;;;;11.30;5.43;;;;;;;14.77;68.27;101011.31;5014123;28;20210;-79
2022/05/15 07:22:04;;;;;;;8.27;4.50;;;;;;;14.81;68.70;101011.19;5014910;28;20264;-81
2022/05/15 07:24:30;;;;;;;7.83;4.87;;;;;;;14.89;68.55;101003.94;5043254;28;20224;-80
2022/05/15 07:26:57;;;;;;;7.33;4.17;;;;;;;14.95;68.32;101023.09;5050293;28;20269;-81
2022/05/15 07:29:24;;;;;;;10.30;5.10;;;;;;;15.07;70.23;100947.34;5033799;28;20245;-79
2022/05/15 07:31:52;;;;;;;9.10;4.73;;;;;;;15.16;68.81;100982.16;5034313;28;20225;-78
2022/05/15 07:34:18;;;;;;;7.60;4.30;;;;;;;15.25;68.04;101022.19;5034109;28;20696;-80
2022/05/15 07:36:50;;;;;;;8.87;4.20;;;;;;;15.31;66.77;101058.00;5034417;28;20210;-81
2022/05/15 07:39:17;;;;;;;5.53;3.50;;;;;;;15.38;66.74;101064.81;5036068;28;20669;-83
2022/05/15 07:41:43;;;;;;;7.40;4.63;;;;;;;15.38;67.36;101051.66;5053824;28;20724;-82
2022/05/15 07:44:09;;;;;;;6.10;3.30;;;;;;;15.46;66.98;101054.03;5052186;28;20228;-82
2022/05/15 07:46:36;;;;;;;7.60;4.13;;;;;;;15.54;66.74;101064.34;5052089;28;20210;-81
2022/05/15 07:49:03;;;;;;;6.53;4.10;;;;;;;15.58;67.38;101064.22;5051392;28;20210;-82
2022/05/15 07:51:31;;;;;;;7.23;4.27;;;;;;;15.66;66.07;101069.28;5052068;28;20636;-82
2022/05/15 07:53:59;;;;;;;9.43;3.77;;;;;;;15.72;64.81;101111.19;5044276;28;20547;-82
2022/05/15 07:56:26;;;;;;;5.37;4.03;;;;;;;15.78;65.06;101121.56;5049748;28;20673;-81
2022/05/15 07:58:53;;;;;;;6.93;3.40;;;;;;;15.86;64.93;101116.09;5053058;28;20203;-83
2022/05/15 08:01:19;;;;;;;4.67;2.97;;;;;;;15.90;63.80;101154.56;5053840;22;1122399;-84
2022/05/15 08:03:46;;;;;;;6.20;3.30;;;;;;;15.93;63.93;101159.72;5018507;28;20206;-85
2022/05/15 08:09:01;;;;;;;7.80;3.07;;;;;;;16.08;63.63;101163.69;5017810;28;20228;-84
2022/05/15 08:11:28;;;;;;;6.70;3.60;;;;;;;16.14;63.88;101146.84;5018522;28;20319;-84
2022/05/15 08:13:55;;;;;;;8.63;3.57;;;;;;;16.21;63.91;101136.06;5018576;28;20211;-84
2022/05/15 08:16:22;;;;;;;7.13;4.63;;;;;;;16.30;61.92;101186.75;5019917;28;20624;-84
2022/05/15 08:24:17;;;;;;;5.87;3.93;;;;;;;16.40;63.21;101193.47;5025055;28;20233;-83
2022/05/15 08:26:45;;;;;;;8.20;2.87;;;;;;;16.47;60.32;101224.84;5020136;28;20211;-84
2022/05/15 08:29:11;;;;;;;7.57;2.97;;;;;;;16.58;59.23;101294.81;5019219;28;20215;-83
2022/05/15 08:31:39;;;;;;;8.50;3.00;;;;;;;16.60;57.79;101346.56;5019218;28;20369;-84
2022/05/15 08:34:06;;;;;;;6.97;2.90;;;;;;;16.68;57.13;101375.34;5025232;28;20208;-84
2022/05/15 08:36:33;;;;;;;6.97;2.93;;;;;;;16.71;57.09;101388.44;5029930;28;20201;-84
2022/05/15 08:39:00;;;;;;;8.87;3.00;;;;;;;16.75;57.91;101370.75;5017306;28;20248;-83
2022/05/15 08:41:40;;;;;;;11.17;2.90;;;;;;;16.80;59.14;101316.09;5026131;28;20229;-84
2022/05/15 08:44:11;;;;;;;7.47;3.57;;;;;;;16.85;57.25;101367.84;5014662;28;20216;-83
2022/05/15 08:46:47;;;;;;;8.77;3.27;;;;;;;16.87;59.20;101330.88;5033656;28;20207;-83
2022/05/15 08:49:21;;;;;;;7.97;2.97;;;;;;;16.92;58.91;101301.72;5034070;28;20200;-83
2022/05/15 08:51:56;;;;;;;10.17;3.33;;;;;;;17.03;59.36;101307.53;5034045;28;20274;-83
2022/05/15 08:54:23;;;;;;;9.67;3.20;;;;;;;17.10;57.58;101353.03;5038721;28;20684;-83
2022/05/15 08:56:51;;;;;;;7.83;3.27;;;;;;;17.17;57.32;101368.63;5041331;28;20195;-84
2022/05/15 08:59:25;;;;;;;6.23;2.63;;;;;;;17.22;56.59;101393.09;5039297;28;20578;-85
2022/05/15 09:01:54;;;;;;;7.47;3.40;;;;;;;17.31;55.89;101404.28;5040130;28;20729;-82
2022/05/15 09:04:21;;;;;;;8.07;3.03;;;;;;;17.34;54.97;101443.75;5037326;28;20244;-84
2022/05/15 09:07:00;;;;;;;7.13;3.53;;;;;;;17.38;54.42;101461.22;5038180;28;20217;-82
2022/05/15 09:09:37;;;;;;;7.00;3.13;;;;;;;17.49;55.09;101452.97;5033866;28;20246;-83
2022/05/15 09:12:15;;;;;;;7.17;3.30;;;;;;;17.57;55.65;101440.38;5035940;28;20232;-83
2022/05/15 09:14:50;;;;;;;8.27;2.43;;;;;;;17.56;54.24;101468.56;5036485;28;20211;-84
2022/05/15 09:17:21;;;;;;;9.70;4.10;;;;;;;17.63;54.24;101453.38;5036746;28;20200;-84
2022/05/15 09:19:52;;;;;;;10.80;3.60;;;;;;;17.63;53.25;101503.56;5035354;28;20193;-83
2022/05/15 09:22:19;;;;;;;6.93;2.93;;;;;;;17.65;53.85;101507.00;5036270;28;20224;-83
2022/05/15 09:24:51;;;;;;;8.17;2.97;;;;;;;17.70;54.13;101494.53;5035539;28;20584;-84
2022/05/15 09:27:21;;;;;;;7.43;3.00;;;;;;;17.79;53.73;101501.28;5035929;28;20194;-84
2022/05/15 09:29:55;;;;;;;7.63;3.47;;;;;;;17.78;52.55;101499.56;5034907;28;20270;-82
2022/05/15 09:32:30;;;;;;;4.83;2.50;;;;;;;17.83;53.37;101511.72;5035208;28;20728;-83
2022/05/15 09:34:59;;;;;;;5.23;2.37;;;;;;;17.88;53.06;101518.66;5036280;28;20258;-82
2022/05/15 09:40:20;;;;;;;7.07;3.70;;;;;;;17.94;52.30;101531.66;5033623;28;20271;-79
2022/05/15 09:45:53;;;;;;;7.37;3.53;;;;;;;18.14;53.08;101480.81;5017628;28;20265;-80
2022/05/15 09:48:24;;;;;;;8.17;2.97;;;;;;;18.18;51.80;101536.16;5016349;28;20209;-80
2022/05/15 09:50:58;;;;;;;7.97;3.20;;;;;;;18.20;52.77;101550.19;5017037;28;20233;-78
2022/05/15 09:53:39;;;;;;;8.97;3.27;;;;;;;18.31;52.21;101539.25;5026239;28;20218;-80
2022/05/15 09:56:08;;;;;;;6.53;3.43;;;;;;;18.37;51.50;101528.47;5030410;28;20201;-79
2022/05/15 09:58:44;;;;;;;7.37;4.30;;;;;;;18.43;51.19;101593.47;5038153;28;20205;-80
2022/05/15 10:01:29;;;;;;;6.40;3.27;;;;;;;18.48;51.99;101551.91;5038323;28;20248;-79
2022/05/15 10:03:57;;;;;;;6.17;3.00;;;;;;;18.56;50.74;101570.16;5037133;28;20260;-80
2022/05/15 10:06:26;;;;;;;4.77;2.60;;;;;;;18.61;51.02;101582.31;5038298;28;20271;-79
2022/05/15 10:09:24;;;;;;;8.43;3.20;;;;;;;18.68;50.11;101613.84;5037815;28;20208;-79
2022/05/15 10:12:00;;;;;;;8.43;2.83;;;;;;;18.69;49.29;101632.31;4992996;28;20225;-77
2022/05/15 10:14:34;;;;;;;10.40;3.03;;;;;;;18.68;48.53;101682.59;5037818;28;20204;-80
2022/05/15 10:17:02;;;;;;;8.73;3.00;;;;;;;18.74;50.71;101634.78;5037697;28;20212;-78
2022/05/15 10:19:39;;;;;;;9.47;3.17;;;;;;;18.83;49.44;101631.88;5038000;28;20664;-79
2022/05/15 10:22:15;;;;;;;5.43;3.03;;;;;;;18.92;49.49;101630.69;5038177;28;20748;-80
2022/05/15 10:24:45;;;;;;;5.90;3.20;;;;;;;18.99;48.64;101662.16;5029981;28;20212;-80
2022/05/15 10:27:17;;;;;;;6.80;3.30;;;;;;;19.04;48.01;101680.53;5037754;28;20232;-79
2022/05/15 10:29:50;;;;;;;6.80;2.90;;;;;;;19.08;47.43;101690.09;5028103;28;20206;-81
2022/05/15 10:32:23;;;;;;;6.30;2.80;;;;;;;19.15;48.69;101677.53;5021965;28;20233;-79
2022/05/15 10:34:49;;;;;;;9.83;3.33;;;;;;;19.28;50.19;101633.78;5018995;28;20619;-81
2022/05/15 10:37:27;;;;;;;7.90;2.93;;;;;;;19.40;49.17;101593.63;5018093;28;20261;-79
2022/05/15 10:40:08;;;;;;;4.53;2.50;;;;;;;19.41;48.75;101674.78;5018424;28;20249;-81
2022/05/15 10:42:45;;;;;;;6.20;3.10;;;;;;;19.54;47.67;101677.84;5019311;28;20203;-81
2022/05/15 10:45:21;;;;;;;5.80;2.77;;;;;;;19.56;48.31;101668.09;5019169;28;20222;-80
2022/05/15 10:48:02;;;;;;;7.70;3.33;;;;;;;19.68;48.85;101647.34;5019203;28;20578;-79
2022/05/15 10:50:34;;;;;;;6.50;2.60;;;;;;;19.73;45.82;101699.28;5017693;28;20238;-81
2022/05/15 10:59:10;;;;;;;6.33;2.60;;;;;;;19.85;45.16;101790.69;5037783;28;20215;-81
2022/05/15 11:01:49;;;;;;;4.93;3.13;;;;;;;19.94;45.63;101770.94;5038606;28;20239;-81
2022/05/15 11:04:26;;;;;;;5.93;2.90;;;;;;;20.05;45.83;101766.13;5038505;28;20193;-80
2022/05/15 11:07:07;;;;;;;8.47;3.20;;;;;;;20.16;46.01;101749.81;5038745;28;20209;-81
2022/05/15 11:09:44;;;;;;;7.30;2.90;;;;;;;20.32;46.48;101712.97;5038150;28;20202;-81
2022/05/15 11:12:19;;;;;;;5.83;2.83;;;;;;;20.50;46.79;101696.31;5039087;28;20251;-81
2022/05/15 11:15:01;;;;;;;8.17;3.00;;;;;;;20.62;45.55;101746.25;5039436;28;20194;-79
2022/05/15 11:17:33;;;;;;;5.33;2.20;;;;;;;20.87;44.71;101742.63;5038698;28;20282;-80
2022/05/15 11:20:08;;;;;;;6.30;3.20;;;;;;;21.07;45.20;101762.13;5038091;28;20213;-80
2022/05/15 11:22:40;;;;;;;5.43;3.03;;;;;;;21.30;44.59;101774.47;5037019;28;20206;-80
2022/05/15 11:25:13;;;;;;;4.93;3.00;;;;;;;21.53;44.75;101784.13;5030432;28;20217;-80
2022/05/15 11:27:47;;;;;;;6.53;2.70;;;;;;;21.79;42.14;101833.50;5039272;28;20714;-81
2022/05/15 11:30:19;;;;;;;5.83;2.60;;;;;;;22.58;40.69;101868.97;5041712;28;20214;-82
2022/05/15 11:33:08;;;;;;;5.70;2.63;;;;;;;24.18;38.16;101964.22;5042374;28;20210;-82
2022/05/15 11:35:38;;;;;;;5.83;2.90;;;;;;;25.97;35.84;102105.13;5041974;28;20214;-81
2022/05/15 11:38:28;;;;;;;6.60;2.70;;;;;;;28.01;31.75;102209.84;5042711;28;20206;-83
2022/05/15 11:40:56;;;;;;;6.57;3.40;;;;;;;29.45;29.96;102343.69;5036637;28;20229;-83
2022/05/15 11:43:58;;;;;;;5.67;3.23;;;;;;;31.07;28.05;102352.69;5042910;28;20207;-83
2022/05/15 11:46:58;;;;;;;5.30;3.63;;;;;;;32.23;26.20;102392.38;5029772;28;20607;-83
2022/05/15 11:49:32;;;;;;;5.90;3.27;;;;;;;32.83;24.81;102439.78;5041950;28;20252;-82
2022/05/15 11:52:18;;;;;;;4.80;3.57;;;;;;;32.76;24.46;102471.00;5043323;28;20739;-82
2022/05/15 11:54:48;;;;;;;9.67;4.17;;;;;;;33.07;23.42;102454.97;5034414;28;20225;-82
2022/05/15 11:57:34;;;;;;;4.83;3.20;;;;;;;33.43;22.85;102442.06;5041028;28;20210;-82
2022/05/15 12:00:04;;;;;;;8.13;3.90;;;;;;;33.63;22.56;102467.47;5032218;28;20253;-83